Atlanta, GA (31141)

7:53 AM EDT on August 31, 2014 (GMT -0400)
Georgia Tech (Midtown) | Change Station
CLOSE
Current Station
Personal Weather Station
Location: Atlanta, GA
Elevation: 935 ft
Nearby Weather Stations
Active Advisory: Special Statement

Elev 935 ft 33.78 °N, 84.40 °W | Updated 2 seconds ago

Mist
Mist
72.0 °F
Feels Like 72.0 °F
N
0.0
Wind Variable Wind from ESE
Gusts 0.0 mph

Today
High -- | Low -- °F
--% Chance of Precip.
Yesterday
High -- | Low -- °F
Precip. -- in
7:10 AM 8:04 PM
Waxing Crescent, 30% visible
Pressure 30.18 in
Visibility 1.0 miles
Clouds
Dew Point 70 °F
Humidity 92%
Rainfall 0.00 in
Snow Depth Not available.
UV Not available.
Pollen 7.60 out of 12
Air Quality Not available.
Flu Activity Not available.
SPECI KFTY 311148Z 00000KT 1SM BR VV002 20/19 A3018 RMK AO2

More Conditions Fewer Conditions

Pressure 30.18 in
Visibility 1.0 miles
Clouds
Dew Point 70 °F
Humidity 92%
Rainfall 0.00 in
Snow Depth Not available.
UV Not available.
Pollen 7.60 out of 12
Air Quality Not available.
Flu Activity Not available.
SPECI KFTY 311148Z 00000KT 1SM BR VV002 20/19 A3018 RMK AO2

More Conditions Fewer Conditions

10-Day Weather Forecast

Almanac

Astronomy

Aug. 31, 2014 Rise Set
Actual Time 7:10 AM EDT 8:04 PM EDT
Civil Twilight 6:45 AM EDT 8:30 PM EDT
Nautical Twilight 6:15 AM EDT 9:00 PM EDT
Astronomical Twilight 5:44 AM EDT 9:31 PM EDT
Moon 12:39 PM EDT 11:36 PM EDT
Length of Visible Light 13h 44m
Length of Day
12h 53m
Tomorrow will be 2m 0s shorter.
Waxing Crescent, 30% of the Moon is Illuminated
Today
Waxing Crescent
Sep 2
First Quarter
Sep 8
Full
Sep 15
Last Quarter
Sep 24
New

Today's Extremes

State Highs State Lows

Community

WunderPhotos

Upload Photos

1,748,848 photos uploaded!

Nearby

Air Quality

  Air Quality AQ Index Pollutant
Sunday Moderate
OZONE
Sunday Moderate
PM2.5

Snow Depth

Station Depth Elevation
No new snow has been reported.

Earthquake Activity

City Distance Mag. Time & Date
No recent earthquake activity has been reported nearby.
Minimum magnitude displayed is 2.5.

Coastal Water Temperatures

Place Temperature
No Stations Reporting

Nearby Weather Stations